sensor_id;sensor_type;location;lat;lon;timestamp;P1;durP1;ratioP1;P2;durP2;ratioP2
39324;SDS011;25037;49.488;9.900;2024-02-26T00:01:48;5.68;;;1.92;;
39324;SDS011;25037;49.488;9.900;2024-02-26T00:04:15;4.75;;;1.60;;
39324;SDS011;25037;49.488;9.900;2024-02-26T00:06:42;4.30;;;1.75;;
39324;SDS011;25037;49.488;9.900;2024-02-26T00:09:09;4.75;;;1.90;;
39324;SDS011;25037;49.488;9.900;2024-02-26T00:11:36;4.47;;;2.05;;
39324;SDS011;25037;49.488;9.900;2024-02-26T00:14:03;5.20;;;2.35;;
39324;SDS011;25037;49.488;9.900;2024-02-26T00:16:30;5.25;;;1.88;;
39324;SDS011;25037;49.488;9.900;2024-02-26T00:18:57;5.25;;;2.13;;
39324;SDS011;25037;49.488;9.900;2024-02-26T00:21:24;4.45;;;2.15;;
39324;SDS011;25037;49.488;9.900;2024-02-26T00:23:52;4.40;;;2.05;;
39324;SDS011;25037;49.488;9.900;2024-02-26T00:26:19;5.47;;;2.10;;
39324;SDS011;25037;49.488;9.900;2024-02-26T00:28:46;5.28;;;2.15;;
39324;SDS011;25037;49.488;9.900;2024-02-26T00:31:13;5.28;;;2.25;;
39324;SDS011;25037;49.488;9.900;2024-02-26T00:33:40;4.68;;;2.20;;
39324;SDS011;25037;49.488;9.900;2024-02-26T00:36:07;3.60;;;1.63;;
39324;SDS011;25037;49.488;9.900;2024-02-26T00:38:34;4.07;;;2.00;;
39324;SDS011;25037;49.488;9.900;2024-02-26T00:41:01;6.22;;;2.13;;
39324;SDS011;25037;49.488;9.900;2024-02-26T00:43:28;3.88;;;1.92;;
39324;SDS011;25037;49.488;9.900;2024-02-26T00:45:55;4.53;;;2.05;;
39324;SDS011;25037;49.488;9.900;2024-02-26T00:48:22;5.68;;;1.90;;
39324;SDS011;25037;49.488;9.900;2024-02-26T00:50:48;7.20;;;2.38;;
39324;SDS011;25037;49.488;9.900;2024-02-26T00:53:15;5.28;;;2.08;;
39324;SDS011;25037;49.488;9.900;2024-02-26T00:55:42;5.43;;;2.17;;
39324;SDS011;25037;49.488;9.900;2024-02-26T00:58:09;5.00;;;2.20;;
39324;SDS011;25037;49.488;9.900;2024-02-26T01:00:35;5.60;;;2.53;;
39324;SDS011;25037;49.488;9.900;2024-02-26T01:03:02;4.45;;;1.80;;
39324;SDS011;25037;49.488;9.900;2024-02-26T01:05:30;6.30;;;2.63;;
39324;SDS011;25037;49.488;9.900;2024-02-26T01:07:56;5.15;;;2.25;;
39324;SDS011;25037;49.488;9.900;2024-02-26T01:10:23;5.78;;;2.30;;
39324;SDS011;25037;49.488;9.900;2024-02-26T01:12:50;5.63;;;2.22;;
39324;SDS011;25037;49.488;9.900;2024-02-26T01:15:16;4.88;;;2.13;;
39324;SDS011;25037;49.488;9.900;2024-02-26T01:17:45;4.55;;;2.33;;
39324;SDS011;25037;49.488;9.900;2024-02-26T01:20:12;5.28;;;2.50;;
39324;SDS011;25037;49.488;9.900;2024-02-26T01:22:39;4.53;;;2.15;;
39324;SDS011;25037;49.488;9.900;2024-02-26T01:25:06;4.50;;;2.03;;
39324;SDS011;25037;49.488;9.900;2024-02-26T01:30:00;4.50;;;2.10;;
39324;SDS011;25037;49.488;9.900;2024-02-26T01:32:30;7.07;;;2.35;;
39324;SDS011;25037;49.488;9.900;2024-02-26T01:37:23;5.13;;;2.30;;
39324;SDS011;25037;49.488;9.900;2024-02-26T01:39:51;4.47;;;2.33;;
39324;SDS011;25037;49.488;9.900;2024-02-26T01:42:17;4.13;;;1.77;;
39324;SDS011;25037;49.488;9.900;2024-02-26T01:44:44;5.63;;;2.20;;
39324;SDS011;25037;49.488;9.900;2024-02-26T01:47:11;5.93;;;2.67;;
39324;SDS011;25037;49.488;9.900;2024-02-26T01:49:38;7.65;;;2.97;;
39324;SDS011;25037;49.488;9.900;2024-02-26T01:52:06;6.82;;;2.42;;
39324;SDS011;25037;49.488;9.900;2024-02-26T01:54:35;7.18;;;2.50;;
39324;SDS011;25037;49.488;9.900;2024-02-26T01:57:03;5.40;;;2.50;;
39324;SDS011;25037;49.488;9.900;2024-02-26T01:59:32;6.28;;;2.70;;
39324;SDS011;25037;49.488;9.900;2024-02-26T02:02:00;6.35;;;2.58;;
39324;SDS011;25037;49.488;9.900;2024-02-26T02:04:29;8.80;;;3.40;;
39324;SDS011;25037;49.488;9.900;2024-02-26T02:06:57;7.65;;;2.45;;
39324;SDS011;25037;49.488;9.900;2024-02-26T02:09:27;7.13;;;3.03;;
39324;SDS011;25037;49.488;9.900;2024-02-26T02:11:54;5.65;;;2.72;;
39324;SDS011;25037;49.488;9.900;2024-02-26T02:16:47;5.43;;;2.63;;
39324;SDS011;25037;49.488;9.900;2024-02-26T02:19:14;7.75;;;2.72;;
39324;SDS011;25037;49.488;9.900;2024-02-26T02:21:41;5.72;;;2.65;;
39324;SDS011;25037;49.488;9.900;2024-02-26T02:24:07;5.15;;;2.55;;
39324;SDS011;25037;49.488;9.900;2024-02-26T02:26:34;6.03;;;2.83;;
39324;SDS011;25037;49.488;9.900;2024-02-26T02:29:01;5.97;;;2.88;;
39324;SDS011;25037;49.488;9.900;2024-02-26T02:31:28;5.82;;;2.67;;
39324;SDS011;25037;49.488;9.900;2024-02-26T02:33:55;6.07;;;2.42;;
39324;SDS011;25037;49.488;9.900;2024-02-26T02:36:22;6.15;;;2.65;;
39324;SDS011;25037;49.488;9.900;2024-02-26T02:38:50;6.35;;;2.50;;
39324;SDS011;25037;49.488;9.900;2024-02-26T02:41:18;5.00;;;2.65;;
39324;SDS011;25037;49.488;9.900;2024-02-26T02:43:45;5.75;;;2.50;;
39324;SDS011;25037;49.488;9.900;2024-02-26T02:46:12;6.05;;;2.55;;
39324;SDS011;25037;49.488;9.900;2024-02-26T02:48:38;6.43;;;2.40;;
39324;SDS011;25037;49.488;9.900;2024-02-26T02:51:07;5.57;;;2.40;;
39324;SDS011;25037;49.488;9.900;2024-02-26T02:53:35;5.78;;;2.58;;
39324;SDS011;25037;49.488;9.900;2024-02-26T02:56:02;6.28;;;2.40;;
39324;SDS011;25037;49.488;9.900;2024-02-26T02:58:29;5.38;;;2.67;;
39324;SDS011;25037;49.488;9.900;2024-02-26T03:00:55;7.40;;;2.60;;
39324;SDS011;25037;49.488;9.900;2024-02-26T03:03:22;6.05;;;2.53;;
39324;SDS011;25037;49.488;9.900;2024-02-26T03:05:50;6.28;;;2.88;;
39324;SDS011;25037;49.488;9.900;2024-02-26T03:08:17;5.45;;;2.72;;
39324;SDS011;25037;49.488;9.900;2024-02-26T03:10:45;5.75;;;2.72;;
39324;SDS011;25037;49.488;9.900;2024-02-26T03:13:12;5.95;;;3.03;;
39324;SDS011;25037;49.488;9.900;2024-02-26T03:15:38;6.00;;;2.50;;
39324;SDS011;25037;49.488;9.900;2024-02-26T03:18:05;4.82;;;2.35;;
39324;SDS011;25037;49.488;9.900;2024-02-26T03:20:32;7.43;;;2.65;;
39324;SDS011;25037;49.488;9.900;2024-02-26T03:22:59;5.10;;;2.35;;
39324;SDS011;25037;49.488;9.900;2024-02-26T03:25:25;5.35;;;2.55;;
39324;SDS011;25037;49.488;9.900;2024-02-26T03:27:52;4.47;;;2.10;;
39324;SDS011;25037;49.488;9.900;2024-02-26T03:30:19;7.25;;;2.83;;
39324;SDS011;25037;49.488;9.900;2024-02-26T03:32:46;6.50;;;2.60;;
39324;SDS011;25037;49.488;9.900;2024-02-26T03:35:14;6.72;;;3.00;;
39324;SDS011;25037;49.488;9.900;2024-02-26T03:37:40;5.25;;;2.22;;
39324;SDS011;25037;49.488;9.900;2024-02-26T03:40:07;5.72;;;2.75;;
39324;SDS011;25037;49.488;9.900;2024-02-26T03:42:35;6.45;;;2.72;;
39324;SDS011;25037;49.488;9.900;2024-02-26T03:45:02;4.97;;;2.28;;
39324;SDS011;25037;49.488;9.900;2024-02-26T03:47:28;5.30;;;2.78;;
39324;SDS011;25037;49.488;9.900;2024-02-26T03:49:55;5.50;;;2.80;;
39324;SDS011;25037;49.488;9.900;2024-02-26T03:52:22;5.88;;;2.88;;
39324;SDS011;25037;49.488;9.900;2024-02-26T03:54:49;6.50;;;2.92;;
39324;SDS011;25037;49.488;9.900;2024-02-26T03:57:16;5.88;;;2.72;;
39324;SDS011;25037;49.488;9.900;2024-02-26T03:59:42;5.35;;;2.58;;
39324;SDS011;25037;49.488;9.900;2024-02-26T04:02:09;7.97;;;3.00;;
39324;SDS011;25037;49.488;9.900;2024-02-26T04:04:36;8.10;;;2.65;;
39324;SDS011;25037;49.488;9.900;2024-02-26T04:07:02;7.22;;;3.13;;
39324;SDS011;25037;49.488;9.900;2024-02-26T04:11:59;5.65;;;2.70;;
39324;SDS011;25037;49.488;9.900;2024-02-26T04:14:26;5.88;;;3.13;;
39324;SDS011;25037;49.488;9.900;2024-02-26T04:16:52;6.38;;;2.72;;
39324;SDS011;25037;49.488;9.900;2024-02-26T04:19:20;6.43;;;3.00;;
39324;SDS011;25037;49.488;9.900;2024-02-26T04:21:47;6.47;;;3.45;;
39324;SDS011;25037;49.488;9.900;2024-02-26T04:24:14;6.97;;;2.85;;
39324;SDS011;25037;49.488;9.900;2024-02-26T04:26:41;7.90;;;2.72;;
39324;SDS011;25037;49.488;9.900;2024-02-26T04:29:07;7.75;;;3.13;;
39324;SDS011;25037;49.488;9.900;2024-02-26T04:31:34;5.55;;;2.50;;
39324;SDS011;25037;49.488;9.900;2024-02-26T04:34:03;6.20;;;3.33;;
39324;SDS011;25037;49.488;9.900;2024-02-26T04:36:30;5.47;;;2.97;;
39324;SDS011;25037;49.488;9.900;2024-02-26T04:38:56;6.55;;;2.95;;
39324;SDS011;25037;49.488;9.900;2024-02-26T04:41:24;5.95;;;2.97;;
39324;SDS011;25037;49.488;9.900;2024-02-26T04:43:51;7.43;;;3.50;;
39324;SDS011;25037;49.488;9.900;2024-02-26T04:46:17;6.25;;;3.00;;
39324;SDS011;25037;49.488;9.900;2024-02-26T04:48:44;6.63;;;3.05;;
39324;SDS011;25037;49.488;9.900;2024-02-26T04:51:13;6.80;;;2.95;;
39324;SDS011;25037;49.488;9.900;2024-02-26T04:53:39;6.60;;;3.03;;
39324;SDS011;25037;49.488;9.900;2024-02-26T04:56:06;5.82;;;2.90;;
39324;SDS011;25037;49.488;9.900;2024-02-26T04:58:33;6.15;;;2.60;;
39324;SDS011;25037;49.488;9.900;2024-02-26T05:00:59;7.63;;;3.15;;
39324;SDS011;25037;49.488;9.900;2024-02-26T05:03:26;5.30;;;2.67;;
39324;SDS011;25037;49.488;9.900;2024-02-26T05:05:53;6.95;;;3.25;;
39324;SDS011;25037;49.488;9.900;2024-02-26T05:08:20;6.22;;;2.80;;
39324;SDS011;25037;49.488;9.900;2024-02-26T05:10:47;6.95;;;2.70;;
39324;SDS011;25037;49.488;9.900;2024-02-26T05:13:13;8.48;;;3.45;;
39324;SDS011;25037;49.488;9.900;2024-02-26T05:15:41;6.95;;;3.70;;
39324;SDS011;25037;49.488;9.900;2024-02-26T05:18:08;6.57;;;3.08;;
39324;SDS011;25037;49.488;9.900;2024-02-26T05:20:35;7.25;;;2.80;;
39324;SDS011;25037;49.488;9.900;2024-02-26T05:25:30;7.07;;;2.55;;
39324;SDS011;25037;49.488;9.900;2024-02-26T05:30:23;9.02;;;3.85;;
39324;SDS011;25037;49.488;9.900;2024-02-26T05:32:50;5.70;;;2.60;;
39324;SDS011;25037;49.488;9.900;2024-02-26T05:35:17;8.32;;;3.10;;
39324;SDS011;25037;49.488;9.900;2024-02-26T05:37:44;7.93;;;2.78;;
39324;SDS011;25037;49.488;9.900;2024-02-26T05:40:11;5.38;;;2.70;;
39324;SDS011;25037;49.488;9.900;2024-02-26T05:42:38;6.43;;;2.88;;
39324;SDS011;25037;49.488;9.900;2024-02-26T05:45:05;6.80;;;3.05;;
39324;SDS011;25037;49.488;9.900;2024-02-26T05:47:33;11.35;;;4.40;;
39324;SDS011;25037;49.488;9.900;2024-02-26T05:50:00;16.83;;;6.28;;
39324;SDS011;25037;49.488;9.900;2024-02-26T05:52:27;16.52;;;5.88;;
39324;SDS011;25037;49.488;9.900;2024-02-26T05:54:55;12.60;;;5.28;;
39324;SDS011;25037;49.488;9.900;2024-02-26T05:57:22;10.30;;;4.55;;
39324;SDS011;25037;49.488;9.900;2024-02-26T05:59:49;8.80;;;3.72;;
39324;SDS011;25037;49.488;9.900;2024-02-26T06:02:15;9.20;;;3.65;;
39324;SDS011;25037;49.488;9.900;2024-02-26T06:04:42;6.85;;;2.95;;
39324;SDS011;25037;49.488;9.900;2024-02-26T06:07:09;8.80;;;3.35;;
39324;SDS011;25037;49.488;9.900;2024-02-26T06:09:36;8.25;;;3.40;;
39324;SDS011;25037;49.488;9.900;2024-02-26T06:12:02;7.70;;;3.33;;
39324;SDS011;25037;49.488;9.900;2024-02-26T06:14:29;7.10;;;3.67;;
39324;SDS011;25037;49.488;9.900;2024-02-26T06:16:56;9.05;;;4.05;;
39324;SDS011;25037;49.488;9.900;2024-02-26T06:19:23;8.40;;;3.83;;
39324;SDS011;25037;49.488;9.900;2024-02-26T06:21:50;8.10;;;4.05;;
39324;SDS011;25037;49.488;9.900;2024-02-26T06:24:17;9.10;;;3.72;;
39324;SDS011;25037;49.488;9.900;2024-02-26T06:26:44;10.98;;;4.28;;
39324;SDS011;25037;49.488;9.900;2024-02-26T06:29:10;9.48;;;4.43;;
39324;SDS011;25037;49.488;9.900;2024-02-26T06:31:37;9.45;;;4.63;;
39324;SDS011;25037;49.488;9.900;2024-02-26T06:34:04;8.73;;;4.30;;
39324;SDS011;25037;49.488;9.900;2024-02-26T06:36:31;9.40;;;4.43;;
39324;SDS011;25037;49.488;9.900;2024-02-26T06:38:58;9.82;;;4.70;;
39324;SDS011;25037;49.488;9.900;2024-02-26T06:41:25;11.30;;;4.60;;
39324;SDS011;25037;49.488;9.900;2024-02-26T06:43:54;9.98;;;4.50;;
39324;SDS011;25037;49.488;9.900;2024-02-26T06:46:21;10.43;;;5.20;;
39324;SDS011;25037;49.488;9.900;2024-02-26T06:48:48;12.10;;;4.60;;
39324;SDS011;25037;49.488;9.900;2024-02-26T06:51:20;8.30;;;4.18;;
39324;SDS011;25037;49.488;9.900;2024-02-26T06:53:47;8.57;;;3.80;;
39324;SDS011;25037;49.488;9.900;2024-02-26T06:56:14;16.83;;;4.15;;
39324;SDS011;25037;49.488;9.900;2024-02-26T06:58:40;8.32;;;4.00;;
39324;SDS011;25037;49.488;9.900;2024-02-26T07:01:07;9.52;;;3.95;;
39324;SDS011;25037;49.488;9.900;2024-02-26T07:03:37;8.40;;;3.40;;
39324;SDS011;25037;49.488;9.900;2024-02-26T07:06:04;9.18;;;3.53;;
39324;SDS011;25037;49.488;9.900;2024-02-26T07:08:30;8.02;;;3.42;;
39324;SDS011;25037;49.488;9.900;2024-02-26T07:10:57;9.65;;;3.60;;
39324;SDS011;25037;49.488;9.900;2024-02-26T07:13:24;7.90;;;3.85;;
39324;SDS011;25037;49.488;9.900;2024-02-26T07:15:50;9.43;;;3.65;;
39324;SDS011;25037;49.488;9.900;2024-02-26T07:18:17;8.40;;;3.60;;
39324;SDS011;25037;49.488;9.900;2024-02-26T07:20:44;9.50;;;3.70;;
39324;SDS011;25037;49.488;9.900;2024-02-26T07:23:11;7.63;;;4.03;;
39324;SDS011;25037;49.488;9.900;2024-02-26T07:25:38;9.18;;;4.20;;
39324;SDS011;25037;49.488;9.900;2024-02-26T07:28:05;8.07;;;3.92;;
39324;SDS011;25037;49.488;9.900;2024-02-26T07:30:32;10.38;;;4.35;;
39324;SDS011;25037;49.488;9.900;2024-02-26T07:32:59;8.88;;;3.50;;
39324;SDS011;25037;49.488;9.900;2024-02-26T07:35:26;9.23;;;4.43;;
39324;SDS011;25037;49.488;9.900;2024-02-26T07:37:54;10.32;;;4.82;;
39324;SDS011;25037;49.488;9.900;2024-02-26T07:40:20;10.43;;;5.10;;
39324;SDS011;25037;49.488;9.900;2024-02-26T07:42:47;10.63;;;5.18;;
39324;SDS011;25037;49.488;9.900;2024-02-26T07:45:15;11.10;;;4.63;;
39324;SDS011;25037;49.488;9.900;2024-02-26T07:47:43;10.77;;;4.95;;
39324;SDS011;25037;49.488;9.900;2024-02-26T07:50:10;10.40;;;4.53;;
39324;SDS011;25037;49.488;9.900;2024-02-26T07:52:38;11.93;;;5.03;;
39324;SDS011;25037;49.488;9.900;2024-02-26T07:57:33;8.48;;;4.30;;
39324;SDS011;25037;49.488;9.900;2024-02-26T08:00:00;10.68;;;4.78;;
39324;SDS011;25037;49.488;9.900;2024-02-26T08:02:33;9.68;;;4.40;;
39324;SDS011;25037;49.488;9.900;2024-02-26T08:05:00;9.77;;;4.85;;
39324;SDS011;25037;49.488;9.900;2024-02-26T08:07:27;8.68;;;4.28;;
39324;SDS011;25037;49.488;9.900;2024-02-26T08:09:54;8.50;;;4.18;;
39324;SDS011;25037;49.488;9.900;2024-02-26T08:12:21;11.13;;;4.70;;
39324;SDS011;25037;49.488;9.900;2024-02-26T08:14:48;11.57;;;5.22;;
39324;SDS011;25037;49.488;9.900;2024-02-26T08:17:14;10.68;;;5.22;;
39324;SDS011;25037;49.488;9.900;2024-02-26T08:19:41;12.20;;;5.72;;
39324;SDS011;25037;49.488;9.900;2024-02-26T08:22:08;11.13;;;5.10;;
39324;SDS011;25037;49.488;9.900;2024-02-26T08:24:36;10.38;;;4.93;;
39324;SDS011;25037;49.488;9.900;2024-02-26T08:27:04;9.02;;;4.47;;
39324;SDS011;25037;49.488;9.900;2024-02-26T08:29:32;10.05;;;4.90;;
39324;SDS011;25037;49.488;9.900;2024-02-26T08:31:59;9.60;;;4.53;;
39324;SDS011;25037;49.488;9.900;2024-02-26T08:34:27;8.65;;;4.20;;
39324;SDS011;25037;49.488;9.900;2024-02-26T08:36:54;9.55;;;4.50;;
39324;SDS011;25037;49.488;9.900;2024-02-26T08:39:21;8.38;;;4.20;;
39324;SDS011;25037;49.488;9.900;2024-02-26T08:41:49;9.68;;;4.05;;
39324;SDS011;25037;49.488;9.900;2024-02-26T08:44:16;8.45;;;3.08;;
39324;SDS011;25037;49.488;9.900;2024-02-26T08:46:44;9.05;;;3.63;;
39324;SDS011;25037;49.488;9.900;2024-02-26T08:49:12;7.70;;;3.70;;
39324;SDS011;25037;49.488;9.900;2024-02-26T08:51:43;7.60;;;3.97;;
39324;SDS011;25037;49.488;9.900;2024-02-26T08:54:11;12.13;;;4.43;;
39324;SDS011;25037;49.488;9.900;2024-02-26T08:56:38;8.25;;;3.53;;
39324;SDS011;25037;49.488;9.900;2024-02-26T08:59:05;8.27;;;3.90;;
39324;SDS011;25037;49.488;9.900;2024-02-26T09:01:33;7.10;;;3.40;;
39324;SDS011;25037;49.488;9.900;2024-02-26T09:04:00;8.07;;;4.10;;
39324;SDS011;25037;49.488;9.900;2024-02-26T09:06:33;7.75;;;3.75;;
39324;SDS011;25037;49.488;9.900;2024-02-26T09:09:03;7.65;;;3.50;;
39324;SDS011;25037;49.488;9.900;2024-02-26T09:11:35;7.47;;;3.58;;
39324;SDS011;25037;49.488;9.900;2024-02-26T09:14:02;7.90;;;3.80;;
39324;SDS011;25037;49.488;9.900;2024-02-26T09:16:39;9.63;;;3.97;;
39324;SDS011;25037;49.488;9.900;2024-02-26T09:19:09;8.13;;;3.95;;
39324;SDS011;25037;49.488;9.900;2024-02-26T09:21:37;7.80;;;3.80;;
39324;SDS011;25037;49.488;9.900;2024-02-26T09:24:10;9.40;;;4.13;;
39324;SDS011;25037;49.488;9.900;2024-02-26T09:26:41;8.73;;;3.95;;
39324;SDS011;25037;49.488;9.900;2024-02-26T09:29:09;8.25;;;4.22;;
39324;SDS011;25037;49.488;9.900;2024-02-26T09:31:41;8.18;;;4.07;;
39324;SDS011;25037;49.488;9.900;2024-02-26T09:34:10;9.90;;;4.32;;
39324;SDS011;25037;49.488;9.900;2024-02-26T09:36:40;8.18;;;4.40;;
39324;SDS011;25037;49.488;9.900;2024-02-26T09:39:12;9.48;;;4.70;;
39324;SDS011;25037;49.488;9.900;2024-02-26T09:41:45;8.02;;;4.10;;
39324;SDS011;25037;49.488;9.900;2024-02-26T09:44:12;9.68;;;4.28;;
39324;SDS011;25037;49.488;9.900;2024-02-26T09:46:48;8.43;;;4.18;;
39324;SDS011;25037;49.488;9.900;2024-02-26T09:49:16;10.73;;;4.30;;
39324;SDS011;25037;49.488;9.900;2024-02-26T09:51:47;8.75;;;4.63;;
39324;SDS011;25037;49.488;9.900;2024-02-26T09:54:16;8.27;;;3.80;;
39324;SDS011;25037;49.488;9.900;2024-02-26T09:56:44;8.00;;;4.40;;
39324;SDS011;25037;49.488;9.900;2024-02-26T09:59:29;9.15;;;4.32;;
39324;SDS011;25037;49.488;9.900;2024-02-26T10:02:13;10.88;;;4.90;;
39324;SDS011;25037;49.488;9.900;2024-02-26T10:04:51;7.53;;;4.55;;
39324;SDS011;25037;49.488;9.900;2024-02-26T10:07:28;9.15;;;4.72;;
39324;SDS011;25037;49.488;9.900;2024-02-26T10:10:03;9.88;;;4.43;;
39324;SDS011;25037;49.488;9.900;2024-02-26T10:12:32;9.13;;;4.10;;
39324;SDS011;25037;49.488;9.900;2024-02-26T10:15:03;9.75;;;4.28;;
39324;SDS011;25037;49.488;9.900;2024-02-26T10:17:30;10.65;;;4.45;;
39324;SDS011;25037;49.488;9.900;2024-02-26T10:22:41;11.30;;;4.38;;
39324;SDS011;25037;49.488;9.900;2024-02-26T10:25:11;9.93;;;4.97;;
39324;SDS011;25037;49.488;9.900;2024-02-26T10:27:42;9.07;;;4.70;;
39324;SDS011;25037;49.488;9.900;2024-02-26T10:30:15;8.48;;;4.35;;
39324;SDS011;25037;49.488;9.900;2024-02-26T10:32:53;8.60;;;4.10;;
39324;SDS011;25037;49.488;9.900;2024-02-26T10:35:30;8.93;;;4.13;;
39324;SDS011;25037;49.488;9.900;2024-02-26T10:38:10;8.10;;;4.45;;
39324;SDS011;25037;49.488;9.900;2024-02-26T10:40:43;9.23;;;4.68;;
39324;SDS011;25037;49.488;9.900;2024-02-26T10:43:14;8.80;;;3.90;;
39324;SDS011;25037;49.488;9.900;2024-02-26T10:45:45;8.50;;;4.22;;
39324;SDS011;25037;49.488;9.900;2024-02-26T10:48:16;9.02;;;4.00;;
39324;SDS011;25037;49.488;9.900;2024-02-26T10:50:50;8.20;;;4.03;;
39324;SDS011;25037;49.488;9.900;2024-02-26T10:53:23;8.20;;;4.50;;
39324;SDS011;25037;49.488;9.900;2024-02-26T10:56:00;10.95;;;5.03;;
39324;SDS011;25037;49.488;9.900;2024-02-26T10:58:38;8.07;;;4.38;;
39324;SDS011;25037;49.488;9.900;2024-02-26T11:01:09;9.43;;;4.55;;
39324;SDS011;25037;49.488;9.900;2024-02-26T11:03:38;10.05;;;4.68;;
39324;SDS011;25037;49.488;9.900;2024-02-26T11:06:16;9.20;;;4.20;;
39324;SDS011;25037;49.488;9.900;2024-02-26T11:08:54;10.50;;;4.78;;
39324;SDS011;25037;49.488;9.900;2024-02-26T11:11:26;10.00;;;5.18;;
39324;SDS011;25037;49.488;9.900;2024-02-26T11:13:54;16.05;;;5.13;;
39324;SDS011;25037;49.488;9.900;2024-02-26T11:16:24;9.15;;;3.95;;
39324;SDS011;25037;49.488;9.900;2024-02-26T11:18:54;7.68;;;3.80;;
39324;SDS011;25037;49.488;9.900;2024-02-26T11:24:54;10.05;;;4.07;;
39324;SDS011;25037;49.488;9.900;2024-02-26T11:27:32;9.52;;;4.53;;
39324;SDS011;25037;49.488;9.900;2024-02-26T11:34:05;9.38;;;4.80;;
39324;SDS011;25037;49.488;9.900;2024-02-26T11:36:54;10.77;;;5.10;;
39324;SDS011;25037;49.488;9.900;2024-02-26T11:39:48;10.10;;;5.03;;
39324;SDS011;25037;49.488;9.900;2024-02-26T11:42:26;10.48;;;5.15;;
39324;SDS011;25037;49.488;9.900;2024-02-26T11:45:37;10.82;;;4.57;;
39324;SDS011;25037;49.488;9.900;2024-02-26T11:48:16;11.23;;;5.22;;
39324;SDS011;25037;49.488;9.900;2024-02-26T11:51:08;12.52;;;5.18;;
39324;SDS011;25037;49.488;9.900;2024-02-26T11:53:38;10.85;;;5.18;;
39324;SDS011;25037;49.488;9.900;2024-02-26T11:58:44;12.10;;;5.25;;
39324;SDS011;25037;49.488;9.900;2024-02-26T12:04:05;10.07;;;5.22;;
39324;SDS011;25037;49.488;9.900;2024-02-26T12:06:55;11.57;;;4.75;;
39324;SDS011;25037;49.488;9.900;2024-02-26T12:12:10;10.45;;;4.97;;
39324;SDS011;25037;49.488;9.900;2024-02-26T12:14:40;9.60;;;4.70;;
39324;SDS011;25037;49.488;9.900;2024-02-26T12:17:21;9.05;;;4.40;;
39324;SDS011;25037;49.488;9.900;2024-02-26T12:19:49;9.55;;;4.95;;
39324;SDS011;25037;49.488;9.900;2024-02-26T12:22:18;7.57;;;4.28;;
39324;SDS011;25037;49.488;9.900;2024-02-26T12:24:45;9.48;;;4.50;;
39324;SDS011;25037;49.488;9.900;2024-02-26T12:29:39;8.85;;;4.97;;
39324;SDS011;25037;49.488;9.900;2024-02-26T12:32:06;9.48;;;4.55;;
39324;SDS011;25037;49.488;9.900;2024-02-26T12:34:33;8.98;;;5.22;;
39324;SDS011;25037;49.488;9.900;2024-02-26T12:37:00;10.05;;;4.93;;
39324;SDS011;25037;49.488;9.900;2024-02-26T12:39:28;9.55;;;4.78;;
39324;SDS011;25037;49.488;9.900;2024-02-26T12:41:55;9.73;;;4.60;;
39324;SDS011;25037;49.488;9.900;2024-02-26T12:44:25;9.05;;;4.60;;
39324;SDS011;25037;49.488;9.900;2024-02-26T12:47:03;10.98;;;5.53;;
39324;SDS011;25037;49.488;9.900;2024-02-26T12:49:30;12.07;;;5.00;;
39324;SDS011;25037;49.488;9.900;2024-02-26T12:51:57;11.52;;;4.38;;
39324;SDS011;25037;49.488;9.900;2024-02-26T12:54:28;9.77;;;4.68;;
39324;SDS011;25037;49.488;9.900;2024-02-26T12:56:59;9.75;;;5.00;;
39324;SDS011;25037;49.488;9.900;2024-02-26T12:59:27;8.50;;;4.53;;
39324;SDS011;25037;49.488;9.900;2024-02-26T13:01:55;8.77;;;3.95;;
39324;SDS011;25037;49.488;9.900;2024-02-26T13:06:49;7.70;;;4.00;;
39324;SDS011;25037;49.488;9.900;2024-02-26T13:11:44;10.25;;;4.13;;
39324;SDS011;25037;49.488;9.900;2024-02-26T13:14:20;12.27;;;4.55;;
39324;SDS011;25037;49.488;9.900;2024-02-26T13:16:56;8.45;;;4.22;;
39324;SDS011;25037;49.488;9.900;2024-02-26T13:19:24;7.47;;;3.95;;
39324;SDS011;25037;49.488;9.900;2024-02-26T13:21:51;8.40;;;4.55;;
39324;SDS011;25037;49.488;9.900;2024-02-26T13:26:46;10.15;;;4.03;;
39324;SDS011;25037;49.488;9.900;2024-02-26T13:31:43;11.75;;;4.50;;
39324;SDS011;25037;49.488;9.900;2024-02-26T13:34:10;9.98;;;5.10;;
39324;SDS011;25037;49.488;9.900;2024-02-26T13:36:37;8.88;;;4.35;;
39324;SDS011;25037;49.488;9.900;2024-02-26T13:39:04;9.70;;;4.45;;
39324;SDS011;25037;49.488;9.900;2024-02-26T13:41:31;11.35;;;4.68;;
39324;SDS011;25037;49.488;9.900;2024-02-26T13:43:58;11.40;;;5.18;;
39324;SDS011;25037;49.488;9.900;2024-02-26T13:46:25;9.05;;;5.00;;
39324;SDS011;25037;49.488;9.900;2024-02-26T13:48:52;11.20;;;5.40;;
39324;SDS011;25037;49.488;9.900;2024-02-26T13:51:21;9.50;;;4.60;;
39324;SDS011;25037;49.488;9.900;2024-02-26T13:56:14;11.13;;;4.13;;
39324;SDS011;25037;49.488;9.900;2024-02-26T14:01:07;8.50;;;4.20;;
39324;SDS011;25037;49.488;9.900;2024-02-26T14:03:35;9.02;;;4.65;;
39324;SDS011;25037;49.488;9.900;2024-02-26T14:06:02;10.73;;;4.32;;
39324;SDS011;25037;49.488;9.900;2024-02-26T14:08:29;8.52;;;4.18;;
39324;SDS011;25037;49.488;9.900;2024-02-26T14:13:22;8.93;;;3.78;;
39324;SDS011;25037;49.488;9.900;2024-02-26T14:15:49;10.63;;;4.57;;
39324;SDS011;25037;49.488;9.900;2024-02-26T14:18:16;11.02;;;4.03;;
39324;SDS011;25037;49.488;9.900;2024-02-26T14:20:43;7.35;;;3.75;;
39324;SDS011;25037;49.488;9.900;2024-02-26T14:23:10;7.30;;;3.92;;
39324;SDS011;25037;49.488;9.900;2024-02-26T14:25:37;8.00;;;3.85;;
39324;SDS011;25037;49.488;9.900;2024-02-26T14:28:04;7.82;;;3.55;;
39324;SDS011;25037;49.488;9.900;2024-02-26T14:30:31;9.23;;;3.38;;
39324;SDS011;25037;49.488;9.900;2024-02-26T14:32:59;6.90;;;3.20;;
39324;SDS011;25037;49.488;9.900;2024-02-26T14:35:25;7.72;;;3.05;;
39324;SDS011;25037;49.488;9.900;2024-02-26T14:37:52;6.97;;;3.10;;
39324;SDS011;25037;49.488;9.900;2024-02-26T14:40:20;7.88;;;3.53;;
39324;SDS011;25037;49.488;9.900;2024-02-26T14:42:46;7.55;;;3.30;;
39324;SDS011;25037;49.488;9.900;2024-02-26T14:47:40;6.88;;;3.13;;
39324;SDS011;25037;49.488;9.900;2024-02-26T14:50:07;6.97;;;3.20;;
39324;SDS011;25037;49.488;9.900;2024-02-26T14:52:34;6.13;;;3.15;;
39324;SDS011;25037;49.488;9.900;2024-02-26T14:55:01;5.43;;;2.85;;
39324;SDS011;25037;49.488;9.900;2024-02-26T14:57:27;9.77;;;3.13;;
39324;SDS011;25037;49.488;9.900;2024-02-26T14:59:54;5.78;;;2.92;;
39324;SDS011;25037;49.488;9.900;2024-02-26T15:02:21;6.55;;;2.75;;
39324;SDS011;25037;49.488;9.900;2024-02-26T15:04:47;7.85;;;3.45;;
39324;SDS011;25037;49.488;9.900;2024-02-26T15:07:14;6.20;;;2.80;;
39324;SDS011;25037;49.488;9.900;2024-02-26T15:09:42;7.88;;;3.03;;
39324;SDS011;25037;49.488;9.900;2024-02-26T15:12:09;6.57;;;3.17;;
39324;SDS011;25037;49.488;9.900;2024-02-26T15:14:37;6.25;;;2.80;;
39324;SDS011;25037;49.488;9.900;2024-02-26T15:17:03;7.13;;;3.35;;
39324;SDS011;25037;49.488;9.900;2024-02-26T15:21:57;5.85;;;3.13;;
39324;SDS011;25037;49.488;9.900;2024-02-26T15:24:24;7.65;;;3.17;;
39324;SDS011;25037;49.488;9.900;2024-02-26T15:26:50;6.28;;;2.55;;
39324;SDS011;25037;49.488;9.900;2024-02-26T15:29:17;5.22;;;2.67;;
39324;SDS011;25037;49.488;9.900;2024-02-26T15:31:44;7.07;;;2.83;;
39324;SDS011;25037;49.488;9.900;2024-02-26T15:34:10;6.30;;;2.50;;
39324;SDS011;25037;49.488;9.900;2024-02-26T15:36:38;5.55;;;2.65;;
39324;SDS011;25037;49.488;9.900;2024-02-26T15:39:06;5.60;;;2.63;;
39324;SDS011;25037;49.488;9.900;2024-02-26T15:41:33;6.53;;;2.65;;
39324;SDS011;25037;49.488;9.900;2024-02-26T15:44:00;6.13;;;2.25;;
39324;SDS011;25037;49.488;9.900;2024-02-26T15:46:27;6.38;;;2.40;;
39324;SDS011;25037;49.488;9.900;2024-02-26T15:48:54;7.35;;;2.03;;
39324;SDS011;25037;49.488;9.900;2024-02-26T15:51:22;4.53;;;1.90;;
39324;SDS011;25037;49.488;9.900;2024-02-26T15:53:52;8.13;;;2.20;;